Time;durP1;ratioP1;P1;durP2;ratioP2;P2;SDS_P1;SDS_P2;PMS_P1;PMS_P2;Temp;Humidity;BMP_temperature;BMP_pressure;BME280_temperature;BME280_humidity;BME280_pressure;Samples;Min_cycle;Max_cycle;Signal;HPM_P1;HPM_P2
2021/06/30 00:00:40;;;;;;;6.60;2.80;;;;;;;19.73;55.02;99014.23;1666167;83;21045;-65
2021/06/30 00:03:08;;;;;;;5.97;3.12;;;;;;;19.71;55.02;99013.53;1674922;83;20971;-64
2021/06/30 00:05:35;;;;;;;3.83;2.45;;;;;;;19.68;55.02;99016.48;1675605;83;21717;-64
2021/06/30 00:08:03;;;;;;;9.43;2.87;;;;;;;19.63;55.02;99013.41;1689788;82;20933;-64
2021/06/30 00:10:29;;;;;;;5.80;2.90;;;;;;;19.58;55.03;99015.69;1678276;82;20929;-64
2021/06/30 00:12:56;;;;;;;3.98;2.80;;;;;;;19.54;55.06;99009.00;1692070;82;21750;-64
2021/06/30 00:15:27;;;;;;;3.55;2.58;;;;;;;19.52;55.03;99008.30;1679126;83;20935;-64
2021/06/30 00:17:54;;;;;;;4.97;2.72;;;;;;;19.51;55.02;99001.36;1676629;82;21083;-64
2021/06/30 00:20:21;;;;;;;4.28;2.95;;;;;;;19.49;55.00;99000.66;1723615;80;20934;-64
2021/06/30 00:22:47;;;;;;;4.37;2.70;;;;;;;19.46;55.01;98996.48;1729607;80;20938;-64
2021/06/30 00:25:15;;;;;;;6.42;2.85;;;;;;;19.44;55.01;98993.18;1720957;80;20921;-64
2021/06/30 00:27:43;;;;;;;8.75;2.83;;;;;;;19.41;55.00;98992.98;1716183;80;21101;-65
2021/06/30 00:30:11;;;;;;;2.77;2.05;;;;;;;19.39;55.00;98988.31;1719228;80;22180;-64
2021/06/30 00:32:38;;;;;;;6.78;2.75;;;;;;;19.38;54.99;98984.02;1717594;80;20917;-64
2021/06/30 00:35:05;;;;;;;6.60;2.45;;;;;;;19.36;55.02;98984.64;1718029;80;20962;-64
2021/06/30 00:37:32;;;;;;;3.52;2.40;;;;;;;19.33;55.03;98982.78;1720428;80;20960;-64
2021/06/30 00:39:59;;;;;;;5.58;2.12;;;;;;;19.28;55.07;98977.91;1721372;80;21623;-64
2021/06/30 00:42:30;;;;;;;4.53;2.65;;;;;;;19.20;55.11;98985.25;1731633;80;21064;-64
2021/06/30 00:44:57;;;;;;;2.60;2.17;;;;;;;19.15;55.16;98984.02;1725526;80;20986;-64
2021/06/30 00:47:24;;;;;;;4.28;2.72;;;;;;;19.11;55.19;98979.52;1726746;80;21450;-64
2021/06/30 00:49:50;;;;;;;9.43;2.85;;;;;;;19.12;55.28;98980.34;1721383;80;20898;-64
2021/06/30 00:52:18;;;;;;;4.47;2.80;;;;;;;19.11;55.35;98974.72;1734723;80;20910;-65
2021/06/30 00:54:44;;;;;;;4.70;2.50;;;;;;;19.11;55.31;98968.11;1683307;83;21088;-64
2021/06/30 00:57:14;;;;;;;4.72;2.45;;;;;;;19.11;55.31;98965.45;1704360;82;20935;-64
2021/06/30 00:59:40;;;;;;;3.60;2.45;;;;;;;19.12;55.32;98965.80;1697661;82;20943;-64
2021/06/30 01:02:07;;;;;;;7.25;3.00;;;;;;;19.14;55.34;98955.91;1661141;83;20937;-64
2021/06/30 01:04:34;;;;;;;3.35;2.40;;;;;;;19.17;55.14;98956.94;1727799;80;21111;-64
2021/06/30 01:07:01;;;;;;;2.92;2.35;;;;;;;19.20;55.35;98950.02;1726391;80;22096;-64
2021/06/30 01:09:27;;;;;;;3.50;2.45;;;;;;;19.21;55.37;98949.03;1727630;80;24189;-65
2021/06/30 01:11:54;;;;;;;4.53;2.90;;;;;;;19.23;55.38;98945.76;1680470;82;21021;-64
2021/06/30 01:14:26;;;;;;;5.55;2.62;;;;;;;19.21;55.40;98937.12;1718460;80;20911;-64
2021/06/30 01:16:53;;;;;;;3.55;2.55;;;;;;;19.16;55.41;98946.02;1714019;80;20923;-64
2021/06/30 01:19:21;;;;;;;5.15;2.83;;;;;;;19.11;55.43;98944.30;1725296;80;21149;-64
2021/06/30 01:21:49;;;;;;;4.80;2.60;;;;;;;19.04;55.47;98951.13;1735012;80;20930;-64
2021/06/30 01:24:17;;;;;;;4.37;2.40;;;;;;;18.96;55.49;98952.70;1728491;80;21530;-64
2021/06/30 01:26:44;;;;;;;3.15;2.58;;;;;;;18.89;55.61;98956.89;1724139;80;20954;-64
2021/06/30 01:29:11;;;;;;;5.92;2.90;;;;;;;18.80;55.74;98955.12;1712130;80;21037;-64
2021/06/30 01:31:38;;;;;;;3.85;2.80;;;;;;;18.73;55.79;98957.94;1723111;80;21440;-64
2021/06/30 01:34:05;;;;;;;4.22;2.90;;;;;;;18.70;55.87;98952.95;1720916;80;20927;-64
2021/06/30 01:36:44;;;;;;;11.28;2.98;;;;;;;18.72;55.86;98957.61;1723430;80;20941;-64
2021/06/30 01:39:11;;;;;;;6.10;3.10;;;;;;;18.72;55.87;98956.29;1718036;80;21050;-64
2021/06/30 01:41:38;;;;;;;5.12;3.10;;;;;;;18.75;55.96;98954.71;1724405;80;26399;-64
2021/06/30 01:44:05;;;;;;;;;;;;;;;18.75;55.96;98948.92;1721843;80;21158;-64
2021/06/30 01:46:32;;;;;;;5.33;2.92;;;;;;;18.74;56.03;98950.41;1724727;80;20114;-64
2021/06/30 01:48:58;;;;;;;4.15;2.58;;;;;;;18.74;55.99;98947.77;1724503;80;20983;-64
2021/06/30 01:51:25;;;;;;;5.58;2.80;;;;;;;18.75;56.03;98949.42;1721948;80;21437;-64
2021/06/30 01:53:57;;;;;;;4.72;2.65;;;;;;;18.77;56.04;98950.12;1726237;80;20954;-64
2021/06/30 01:56:24;;;;;;;8.20;2.87;;;;;;;18.79;56.11;98946.82;1717626;80;21059;-64
2021/06/30 01:59:01;;;;;;;4.75;2.85;;;;;;;18.79;56.13;98948.14;1723780;80;20898;-64
2021/06/30 02:01:28;;;;;;;4.05;2.92;;;;;;;18.80;56.14;98947.68;1736146;80;20913;-64
2021/06/30 02:04:00;;;;;;;4.05;3.00;;;;;;;18.79;56.20;98945.50;1724350;80;21440;-64
2021/06/30 02:06:29;;;;;;;4.30;3.10;;;;;;;18.79;56.20;98938.89;1726191;80;21483;-64
2021/06/30 02:08:57;;;;;;;4.95;3.40;;;;;;;18.79;56.21;98938.89;1727146;80;21863;-64
2021/06/30 02:11:27;;;;;;;3.55;2.80;;;;;;;18.78;56.21;98930.12;1717603;80;21576;-65
2021/06/30 02:13:54;;;;;;;3.90;2.92;;;;;;;18.81;56.31;98940.08;1733654;80;20910;-64
2021/06/30 02:16:21;;;;;;;4.30;3.08;;;;;;;18.82;56.30;98936.45;1680878;82;21027;-64
2021/06/30 02:18:48;;;;;;;4.70;3.00;;;;;;;18.81;56.33;98934.30;1693229;82;20895;-65
2021/06/30 02:21:15;;;;;;;3.02;2.72;;;;;;;18.81;56.33;98936.11;1706616;82;21053;-65
2021/06/30 02:23:42;;;;;;;15.13;3.17;;;;;;;18.81;56.37;98931.65;1639015;84;27604;-64
2021/06/30 02:26:09;;;;;;;5.85;3.08;;;;;;;18.82;56.40;98941.27;1698442;82;28371;-64
2021/06/30 02:28:35;;;;;;;3.58;3.00;;;;;;;18.82;56.45;98938.62;1703710;82;21413;-64
2021/06/30 02:31:03;;;;;;;5.05;2.92;;;;;;;18.83;56.51;98941.60;1641156;84;21091;-64
2021/06/30 02:33:30;;;;;;;7.00;4.08;;;;;;;18.86;56.59;98945.78;1647268;84;21231;-64
2021/06/30 02:35:57;;;;;;;7.37;3.80;;;;;;;18.87;56.65;98940.33;1703182;82;20891;-64
2021/06/30 02:38:23;;;;;;;4.70;3.20;;;;;;;18.90;56.64;98934.74;1662269;84;21013;-65
2021/06/30 02:40:51;;;;;;;4.65;3.20;;;;;;;18.97;56.65;98930.55;1686182;82;21651;-64
2021/06/30 02:43:17;;;;;;;;;;;;;;;19.06;56.62;98922.72;1726690;80;21045;-65
2021/06/30 02:45:44;;;;;;;5.12;3.80;;;;;;;19.15;56.61;98924.48;1719294;80;22717;-65
2021/06/30 02:48:10;;;;;;;5.53;3.92;;;;;;;19.32;56.65;98930.31;1716764;80;20945;-64
2021/06/30 02:50:37;;;;;;;4.83;3.90;;;;;;;19.59;56.60;98919.37;1677117;82;20949;-64
2021/06/30 02:53:03;;;;;;;5.55;3.42;;;;;;;19.73;56.39;98917.56;1655720;84;20947;-65
2021/06/30 02:55:30;;;;;;;4.70;2.95;;;;;;;19.76;56.30;98915.93;1691601;82;20943;-64
2021/06/30 02:57:57;;;;;;;5.35;3.50;;;;;;;19.77;56.24;98914.94;1654986;84;21116;-64
2021/06/30 03:00:26;;;;;;;5.20;3.20;;;;;;;19.77;56.19;98912.28;1695905;82;20963;-64
2021/06/30 03:02:53;;;;;;;3.10;2.87;;;;;;;19.77;56.18;98909.64;1649968;84;21725;-64
2021/06/30 03:05:20;;;;;;;4.85;3.12;;;;;;;19.78;56.13;98911.32;1697144;82;20943;-65
2021/06/30 03:07:50;;;;;;;;;;;;;;;19.80;56.06;98914.66;1699230;82;20997;-64
2021/06/30 03:10:15;;;;;;;6.75;3.22;;;;;;;19.85;55.99;98918.98;1699507;82;21111;-64
2021/06/30 03:12:41;;;;;;;6.08;3.27;;;;;;;19.94;55.94;98915.09;1700744;82;21000;-64
2021/06/30 03:15:11;;;;;;;3.77;3.08;;;;;;;20.03;55.84;98904.93;1702739;82;20966;-64
2021/06/30 03:17:38;;;;;;;6.20;3.22;;;;;;;20.16;55.78;98904.02;1698128;82;21454;-65
2021/06/30 03:20:08;;;;;;;4.53;3.37;;;;;;;20.29;55.67;98905.78;1699744;82;20958;-64
2021/06/30 03:22:36;;;;;;;4.17;3.40;;;;;;;20.61;55.80;98904.36;1699072;82;21441;-65
2021/06/30 03:25:03;;;;;;;6.10;3.50;;;;;;;21.17;55.50;98901.69;1697818;82;20902;-64
2021/06/30 03:27:30;;;;;;;5.90;2.83;;;;;;;21.31;55.18;98907.35;1720138;80;21804;-65
2021/06/30 03:29:56;;;;;;;5.33;3.00;;;;;;;21.85;55.51;98911.34;1685322;82;20993;-65
2021/06/30 03:32:23;;;;;;;4.97;2.98;;;;;;;22.71;55.14;98902.48;1690967;82;21506;-65
2021/06/30 03:34:49;;;;;;;19.87;3.72;;;;;;;23.17;54.61;98896.06;1641262;84;21102;-65
2021/06/30 03:37:16;;;;;;;11.45;3.60;;;;;;;23.71;54.41;98894.78;1651900;85;21004;-65
2021/06/30 03:39:43;;;;;;;11.10;3.55;;;;;;;24.11;53.77;98891.47;1697216;82;21037;-64
2021/06/30 03:42:10;;;;;;;10.03;3.20;;;;;;;24.07;53.46;98884.85;1694156;82;28181;-65
2021/06/30 03:44:36;;;;;;;5.10;3.00;;;;;;;24.46;53.37;98891.88;1692150;82;21033;-65
2021/06/30 03:47:03;;;;;;;15.85;3.50;;;;;;;24.59;52.57;98892.08;1690146;82;21018;-65
2021/06/30 03:49:29;;;;;;;;;;;;;;;24.51;52.59;98886.82;1701623;82;20907;-65
2021/06/30 03:51:56;;;;;;;12.18;3.42;;;;;;;25.24;52.21;98893.19;1699956;82;20102;-65
2021/06/30 03:54:26;;;;;;;10.85;3.40;;;;;;;26.10;52.12;98888.77;1695549;82;26813;-65
2021/06/30 03:56:53;;;;;;;6.60;2.77;;;;;;;27.05;51.67;98885.69;1685632;82;21156;-65
2021/06/30 03:59:21;;;;;;;14.47;3.12;;;;;;;27.44;50.65;98885.87;1653733;84;21103;-65
2021/06/30 04:01:50;;;;;;;6.00;3.10;;;;;;;27.76;50.12;98876.78;1669934;83;20967;-63
2021/06/30 04:04:19;;;;;;;11.83;2.62;;;;;;;28.27;49.45;98877.55;1667433;82;20965;-63
2021/06/30 04:06:46;;;;;;;27.05;3.72;;;;;;;28.78;48.81;98878.74;1679868;82;21037;-63
2021/06/30 04:09:14;;;;;;;13.48;3.02;;;;;;;29.10;48.27;98875.69;1672059;83;21485;-62
2021/06/30 04:11:41;;;;;;;8.03;2.42;;;;;;;29.42;47.46;98877.08;1688215;82;21170;-63
2021/06/30 04:14:09;;;;;;;10.40;3.12;;;;;;;29.83;46.75;98873.15;1671036;83;20933;-62
2021/06/30 04:16:39;;;;;;;4.95;2.72;;;;;;;30.22;46.30;98876.58;1673502;83;21101;-63
2021/06/30 04:19:06;;;;;;;23.47;3.15;;;;;;;30.66;45.74;98873.37;1667907;83;20948;-63
2021/06/30 04:21:33;;;;;;;18.87;3.80;;;;;;;31.04;44.98;98874.53;1687801;82;21066;-63
2021/06/30 04:23:59;;;;;;;12.60;3.10;;;;;;;31.46;44.44;98871.13;1694977;82;21075;-63
2021/06/30 04:26:27;;;;;;;6.80;2.58;;;;;;;31.94;44.00;98870.23;1689772;82;20996;-63
2021/06/30 04:28:54;;;;;;;7.20;2.42;;;;;;;32.25;43.44;98880.72;1669081;84;20958;-63
2021/06/30 04:31:21;;;;;;;6.95;2.83;;;;;;;32.69;42.64;98881.75;1674762;83;20892;-62
2021/06/30 04:33:47;;;;;;;11.45;2.83;;;;;;;32.32;41.57;98886.84;1691257;82;22170;-63
2021/06/30 04:36:15;;;;;;;9.95;2.75;;;;;;;31.34;40.81;98881.81;1677146;82;21058;-63
2021/06/30 04:38:42;;;;;;;128.12;12.68;;;;;;;30.88;41.04;98886.73;1685196;82;20869;-63
2021/06/30 04:41:10;;;;;;;12.60;3.00;;;;;;;31.01;40.57;98887.65;1662967;83;21630;-63
2021/06/30 04:43:39;;;;;;;9.88;3.10;;;;;;;31.15;40.10;98881.86;1661975;83;21022;-63
2021/06/30 04:46:09;;;;;;;5.22;2.40;;;;;;;31.38;39.74;98883.88;1676204;82;20976;-63
2021/06/30 04:48:36;;;;;;;5.37;2.20;;;;;;;31.41;39.01;98883.41;1673405;83;21841;-63
2021/06/30 04:51:04;;;;;;;18.05;3.22;;;;;;;31.43;38.62;98886.72;1683957;82;21047;-63
2021/06/30 04:53:31;;;;;;;85.40;9.50;;;;;;;31.15;37.81;98886.44;1675938;82;20980;-63
2021/06/30 04:55:58;;;;;;;14.28;3.35;;;;;;;30.94;38.09;98888.52;1672343;83;20930;-63
2021/06/30 04:58:26;;;;;;;9.38;3.42;;;;;;;31.13;37.76;98887.18;1702045;82;20986;-63
2021/06/30 05:00:55;;;;;;;8.23;2.50;;;;;;;31.44;37.61;98882.95;1646748;84;22046;-63
2021/06/30 05:03:27;;;;;;;10.78;2.65;;;;;;;31.70;36.71;98883.63;1666745;83;20934;-63
2021/06/30 05:05:51;;;;;;;20.75;3.70;;;;;;;31.57;36.86;98887.89;1678573;83;20970;-63
2021/06/30 05:08:22;;;;;;;12.00;2.90;;;;;;;31.74;36.65;98884.83;1673082;82;20915;-63
2021/06/30 05:10:49;;;;;;;15.55;2.60;;;;;;;31.97;36.35;98880.03;1667840;82;20985;-63
2021/06/30 05:13:16;;;;;;;14.10;3.42;;;;;;;32.18;36.01;98876.48;1699508;82;21160;-63
2021/06/30 05:15:43;;;;;;;13.25;3.60;;;;;;;32.40;35.70;98879.43;1708997;81;21484;-63
2021/06/30 05:18:10;;;;;;;25.62;3.92;;;;;;;32.22;35.26;98878.48;1704496;82;21057;-63
2021/06/30 05:20:37;;;;;;;21.57;4.12;;;;;;;32.06;35.07;98875.12;1704690;82;20947;-63
2021/06/30 05:23:03;;;;;;;14.33;3.58;;;;;;;32.06;34.84;98876.47;1707579;82;21548;-63
2021/06/30 05:25:30;;;;;;;21.62;3.90;;;;;;;32.07;34.36;98876.25;1703140;82;21031;-63
2021/06/30 05:27:56;;;;;;;20.30;4.75;;;;;;;31.59;34.11;98881.72;1690294;82;21489;-63
2021/06/30 05:30:23;;;;;;;20.20;3.83;;;;;;;30.66;33.73;98885.49;1699310;82;20946;-63
2021/06/30 05:32:50;;;;;;;14.55;4.08;;;;;;;29.61;33.83;98889.59;1701927;82;20954;-63
2021/06/30 05:35:16;;;;;;;22.50;4.42;;;;;;;28.62;33.96;98886.72;1697085;82;20920;-63
2021/06/30 05:37:43;;;;;;;23.40;3.98;;;;;;;27.79;34.38;98893.84;1691786;82;21067;-63
2021/06/30 05:40:11;;;;;;;97.47;12.13;;;;;;;27.16;34.76;98887.83;1697562;82;21495;-62
2021/06/30 05:42:38;;;;;;;24.18;4.92;;;;;;;26.71;35.09;98892.72;1698569;82;20879;-62
2021/06/30 05:45:07;;;;;;;18.45;5.40;;;;;;;26.33;35.56;98890.39;1697544;82;20876;-62
2021/06/30 05:47:34;;;;;;;17.80;3.92;;;;;;;26.10;35.97;98894.11;1719554;80;21008;-63
2021/06/30 05:50:01;;;;;;;25.75;4.55;;;;;;;25.96;36.50;98889.64;1725957;80;21814;-62
2021/06/30 05:52:27;;;;;;;34.78;4.40;;;;;;;26.04;36.86;98891.36;1679925;82;20937;-63
2021/06/30 05:54:54;;;;;;;28.02;4.53;;;;;;;26.22;37.20;98886.39;1704487;82;20903;-62
2021/06/30 05:57:21;;;;;;;27.50;4.90;;;;;;;26.39;37.38;98889.61;1650243;84;20969;-62
2021/06/30 05:59:48;;;;;;;47.75;6.15;;;;;;;26.58;37.61;98885.94;1686387;82;21442;-62
2021/06/30 06:02:14;;;;;;;17.07;3.58;;;;;;;26.72;37.76;98880.98;1653093;84;22012;-62
2021/06/30 06:04:41;;;;;;;16.97;4.37;;;;;;;26.78;37.93;98877.53;1672028;82;20911;-62
2021/06/30 06:07:07;;;;;;;21.85;3.83;;;;;;;26.73;37.82;98873.28;1693270;82;20951;-63
2021/06/30 06:09:34;;;;;;;23.67;4.40;;;;;;;26.63;37.96;98874.13;1680529;82;21524;-62
2021/06/30 06:12:00;;;;;;;15.70;4.03;;;;;;;26.54;38.13;98872.13;1685794;82;20963;-62
2021/06/30 06:14:27;;;;;;;;;;;;;;;26.86;38.37;98875.19;1671382;83;21789;-63
2021/06/30 06:16:54;;;;;;;;;;;;;;;27.34;38.19;98869.36;1683532;83;20110;-63
2021/06/30 06:19:21;;;;;;;24.10;4.15;;;;;;;27.49;37.81;98867.84;1674534;82;20100;-63
2021/06/30 06:21:48;;;;;;;27.20;4.30;;;;;;;28.18;38.24;98873.44;1690947;82;21013;-63
2021/06/30 06:24:15;;;;;;;10.38;3.58;;;;;;;29.08;37.79;98864.84;1671398;83;20953;-63
2021/06/30 06:26:42;;;;;;;13.18;3.20;;;;;;;29.12;37.06;98859.33;1667395;83;21926;-63
2021/06/30 06:29:10;;;;;;;17.17;3.40;;;;;;;29.01;37.09;98864.29;1666037;83;20941;-65
2021/06/30 06:31:42;;;;;;;9.35;3.12;;;;;;;28.82;36.77;98864.36;1676878;83;21038;-63
2021/06/30 06:34:08;;;;;;;12.43;3.47;;;;;;;28.64;36.45;98864.52;1664689;83;20990;-64
2021/06/30 06:36:35;;;;;;;28.98;3.50;;;;;;;28.34;36.35;98864.11;1664886;83;20986;-66
2021/06/30 06:39:04;;;;;;;22.45;4.20;;;;;;;28.30;36.73;98858.34;1726305;80;21295;-65
2021/06/30 06:41:32;;;;;;;12.37;3.25;;;;;;;28.96;36.97;98855.22;1711685;80;21113;-65
2021/06/30 06:43:59;;;;;;;14.30;3.30;;;;;;;29.83;36.12;98851.63;1716432;80;21071;-64
2021/06/30 06:46:25;;;;;;;12.00;3.30;;;;;;;30.20;35.64;98846.34;1728638;80;20934;-65
2021/06/30 06:48:52;;;;;;;40.52;5.15;;;;;;;30.18;35.34;98845.73;1725339;80;21677;-65
2021/06/30 06:51:19;;;;;;;25.32;3.55;;;;;;;30.16;34.85;98845.13;1732815;80;21172;-66
2021/06/30 06:53:45;;;;;;;16.15;3.40;;;;;;;30.30;34.48;98845.33;1723743;80;20910;-67
2021/06/30 06:56:13;;;;;;;32.13;3.87;;;;;;;30.36;34.48;98853.89;1711726;80;21078;-66
2021/06/30 06:58:40;;;;;;;10.55;3.08;;;;;;;30.00;33.73;98844.65;1717167;80;20902;-66
2021/06/30 07:01:08;;;;;;;7.58;2.83;;;;;;;29.36;33.29;98847.02;1659335;83;21012;-66
2021/06/30 07:03:35;;;;;;;5.70;2.85;;;;;;;28.83;33.38;98844.54;1723399;80;21137;-66
2021/06/30 07:06:02;;;;;;;11.65;2.92;;;;;;;28.56;33.68;98845.94;1726177;80;20862;-66
2021/06/30 07:08:28;;;;;;;;;;;;;;;28.44;33.65;98852.47;1679776;83;21547;-66
2021/06/30 07:10:55;;;;;;;14.33;3.33;;;;;;;28.39;33.82;98851.42;1682248;83;20343;-65
2021/06/30 07:13:22;;;;;;;7.17;2.87;;;;;;;28.29;33.77;98855.36;1722441;80;20984;-66
2021/06/30 07:15:49;;;;;;;37.63;4.22;;;;;;;28.13;33.78;98861.67;1723386;80;21259;-66
2021/06/30 07:18:16;;;;;;;19.17;3.83;;;;;;;28.00;34.07;98857.94;1725856;80;21060;-65
2021/06/30 07:20:44;;;;;;;20.48;3.65;;;;;;;27.89;33.88;98863.39;1679986;82;21872;-66
2021/06/30 07:23:12;;;;;;;11.00;3.30;;;;;;;27.65;33.83;98861.29;1686998;82;20884;-65
2021/06/30 07:25:40;;;;;;;12.33;3.75;;;;;;;27.47;33.97;98863.19;1702425;82;20946;-65
2021/06/30 07:28:08;;;;;;;11.93;3.22;;;;;;;27.43;34.05;98868.14;1642335;84;22232;-65
2021/06/30 07:30:35;;;;;;;9.40;3.05;;;;;;;27.37;34.27;98860.91;1693657;82;20911;-66
2021/06/30 07:33:03;;;;;;;9.15;2.90;;;;;;;27.28;34.27;98863.47;1701696;82;20943;-65
2021/06/30 07:35:30;;;;;;;11.97;3.33;;;;;;;27.23;34.43;98856.54;1702374;82;20991;-66
2021/06/30 07:37:56;;;;;;;9.50;3.90;;;;;;;27.14;34.47;98853.67;1702930;82;20935;-66
2021/06/30 07:40:23;;;;;;;25.32;5.30;;;;;;;26.96;35.03;98840.31;1702373;82;21191;-66
2021/06/30 07:42:50;;;;;;;11.68;3.42;;;;;;;26.96;35.03;98840.31;1703476;82;20931;-66
2021/06/30 07:45:16;;;;;;;4.70;2.92;;;;;;;27.08;35.06;98856.64;1701846;82;21445;-66
2021/06/30 07:47:43;;;;;;;15.03;3.60;;;;;;;27.13;35.17;98861.41;1678090;82;20882;-66
2021/06/30 07:50:10;;;;;;;;;;;;;;;27.17;35.32;98857.35;1718745;80;20940;-67
2021/06/30 07:52:37;;;;;;;31.42;5.10;;;;;;;27.18;35.24;98868.38;1715715;80;21914;-65
2021/06/30 07:55:04;;;;;;;17.35;4.15;;;;;;;27.26;35.50;98861.50;1700359;80;20941;-65
2021/06/30 07:57:31;;;;;;;19.32;4.17;;;;;;;27.45;35.49;98855.38;1714899;80;20954;-65
2021/06/30 07:59:58;;;;;;;12.93;3.58;;;;;;;27.62;35.60;98861.18;1727413;80;20908;-65
2021/06/30 08:02:24;;;;;;;14.25;3.33;;;;;;;27.90;35.75;98857.53;1724338;80;21052;-66
2021/06/30 08:04:51;;;;;;;;;;;;;;;28.31;35.47;98849.25;1719955;80;21057;-64
2021/06/30 08:07:17;;;;;;;;;;;;;;;28.52;35.21;98846.06;1722588;80;20166;-66
2021/06/30 08:09:44;;;;;;;32.42;5.28;;;;;;;28.59;35.13;98845.52;1725484;80;20101;-66
2021/06/30 08:12:10;;;;;;;13.90;2.87;;;;;;;28.72;35.20;98838.77;1725548;80;20915;-66
2021/06/30 08:14:37;;;;;;;18.57;3.87;;;;;;;28.69;34.98;98839.20;1723837;80;20966;-65
2021/06/30 08:17:04;;;;;;;11.68;3.02;;;;;;;28.58;34.91;98841.19;1728930;80;22364;-65
2021/06/30 08:19:31;;;;;;;10.18;3.17;;;;;;;28.48;34.72;98832.73;1723600;80;20953;-65
2021/06/30 08:22:00;;;;;;;7.53;2.70;;;;;;;28.38;34.89;98841.20;1716490;80;21674;-65
2021/06/30 08:24:27;;;;;;;53.40;5.60;;;;;;;28.36;34.88;98835.73;1697179;80;20915;-66
2021/06/30 08:26:55;;;;;;;14.40;2.90;;;;;;;28.46;34.77;98832.96;1714826;80;20947;-65
2021/06/30 08:29:24;;;;;;;73.60;6.22;;;;;;;28.48;34.85;98830.05;1722378;80;21359;-66
2021/06/30 08:31:51;;;;;;;6.92;2.98;;;;;;;28.95;35.15;98838.80;1721513;80;20910;-65
2021/06/30 08:34:17;;;;;;;5.62;2.50;;;;;;;29.32;34.76;98833.69;1718801;80;20946;-65
2021/06/30 08:36:45;;;;;;;7.83;3.20;;;;;;;29.42;33.97;98834.87;1722718;80;20975;-66
2021/06/30 08:39:12;;;;;;;10.05;2.92;;;;;;;29.35;34.00;98830.56;1675025;83;21449;-65
2021/06/30 08:41:38;;;;;;;6.90;2.67;;;;;;;29.41;33.65;98821.66;1694765;82;21269;-65
2021/06/30 08:44:05;;;;;;;;;;;;;;;29.42;33.35;98820.61;1724958;80;20957;-66
2021/06/30 08:46:33;;;;;;;8.75;3.47;;;;;;;29.15;33.39;98830.15;1719461;80;20124;-67
2021/06/30 08:49:03;;;;;;;13.38;2.67;;;;;;;28.85;32.74;98830.35;1727277;80;21477;-66
2021/06/30 08:51:30;;;;;;;5.28;2.35;;;;;;;28.53;32.77;98822.20;1726608;80;20976;-64
2021/06/30 08:53:57;;;;;;;6.25;2.55;;;;;;;28.35;32.81;98828.20;1731868;80;21134;-65
2021/06/30 08:56:33;;;;;;;;;;;;;;;28.32;32.85;98823.25;1733828;80;20931;-66
2021/06/30 08:58:53;;;;;;;8.18;2.92;;;;;;;28.30;33.16;98820.77;1725802;80;20129;-66
2021/06/30 09:01:20;;;;;;;8.80;2.95;;;;;;;28.32;33.13;98825.94;1729039;80;20906;-65
2021/06/30 09:03:50;;;;;;;11.97;2.95;;;;;;;28.37;33.17;98822.61;1721892;80;20924;-65
2021/06/30 09:06:16;;;;;;;6.65;2.92;;;;;;;28.45;33.47;98815.19;1725157;80;21142;-66
2021/06/30 09:08:54;;;;;;;29.63;4.85;;;;;;;29.00;33.51;98812.12;1724319;80;20950;-66
2021/06/30 09:11:24;;;;;;;16.32;3.40;;;;;;;29.25;33.46;98812.76;1719844;80;20972;-65
2021/06/30 09:14:09;;;;;;;31.97;4.75;;;;;;;29.48;33.59;98803.60;1729837;80;20954;-66
2021/06/30 09:20:08;;;;;;;26.68;4.45;;;;;;;30.00;33.22;98801.59;1720159;80;21144;-65
2021/06/30 09:22:52;;;;;;;7.87;3.10;;;;;;;30.09;32.76;98793.52;1723071;80;20953;-66
2021/06/30 09:25:29;;;;;;;7.45;3.08;;;;;;;29.89;32.95;98805.00;1726080;80;21006;-65
2021/06/30 09:27:55;;;;;;;;;;;;;;;29.87;32.64;98799.00;1719966;80;20868;-65
2021/06/30 09:30:22;;;;;;;5.12;2.95;;;;;;;29.77;32.94;98799.52;1732676;80;20098;-65
2021/06/30 09:33:02;;;;;;;4.53;2.98;;;;;;;29.94;33.08;98795.75;1726959;80;21082;-65
2021/06/30 09:35:35;;;;;;;8.98;2.87;;;;;;;30.16;33.00;98793.97;1729376;80;20970;-66
2021/06/30 09:38:29;;;;;;;7.25;2.90;;;;;;;30.62;32.84;98791.36;1721430;80;20892;-65
2021/06/30 09:40:57;;;;;;;24.05;4.08;;;;;;;30.56;32.53;98783.66;1727041;80;21489;-66
2021/06/30 09:43:30;;;;;;;36.60;5.00;;;;;;;30.73;32.76;98787.38;1720097;80;21077;-66
2021/06/30 09:45:59;;;;;;;11.48;3.12;;;;;;;30.71;32.11;98783.27;1724368;80;21333;-65
2021/06/30 09:48:33;;;;;;;9.03;3.05;;;;;;;30.62;32.41;98794.05;1711344;80;21432;-66
2021/06/30 09:51:05;;;;;;;9.00;3.02;;;;;;;30.87;32.40;98781.34;1725366;80;21750;-65
2021/06/30 09:53:39;;;;;;;12.88;3.12;;;;;;;31.28;32.48;98782.42;1711236;80;21521;-66
2021/06/30 09:56:37;;;;;;;23.00;3.92;;;;;;;31.73;32.29;98780.61;1721999;80;20941;-69
2021/06/30 09:59:18;;;;;;;13.55;2.92;;;;;;;31.80;31.96;98780.52;1725526;80;21193;-68
2021/06/30 10:01:59;;;;;;;11.18;2.92;;;;;;;32.03;31.21;98774.34;1718326;80;21517;-67
2021/06/30 10:04:42;;;;;;;12.43;2.85;;;;;;;32.02;31.22;98768.66;1720606;80;21468;-65
2021/06/30 10:07:17;;;;;;;14.25;3.00;;;;;;;32.06;30.47;98760.37;1733587;80;21119;-65
2021/06/30 10:09:55;;;;;;;11.88;3.30;;;;;;;31.69;30.65;98774.05;1725747;80;21879;-66
2021/06/30 10:12:27;;;;;;;11.28;3.30;;;;;;;31.83;30.89;98779.52;1712240;80;21111;-65
2021/06/30 10:14:55;;;;;;;7.65;2.80;;;;;;;31.80;30.48;98778.64;1724087;80;21610;-65
2021/06/30 10:17:23;;;;;;;15.72;2.72;;;;;;;31.43;30.42;98770.73;1726759;80;20930;-66
2021/06/30 10:19:54;;;;;;;13.50;3.22;;;;;;;31.10;30.75;98778.45;1721365;80;20945;-66
2021/06/30 10:22:24;;;;;;;7.85;2.83;;;;;;;30.92;30.55;98780.14;1718566;80;20923;-65
2021/06/30 10:24:52;;;;;;;23.07;4.53;;;;;;;30.50;30.81;98779.99;1699425;80;21709;-66
2021/06/30 10:27:19;;;;;;;20.43;3.60;;;;;;;30.13;30.95;98786.34;1692699;81;20989;-65
2021/06/30 10:29:54;;;;;;;5.37;3.05;;;;;;;29.49;31.44;98792.32;1713952;80;20906;-66
2021/06/30 10:32:22;;;;;;;8.13;2.55;;;;;;;29.13;31.92;98793.80;1718157;80;20922;-66
2021/06/30 10:34:53;;;;;;;5.72;3.27;;;;;;;28.83;32.53;98796.19;1728886;80;21485;-65
2021/06/30 10:37:32;;;;;;;12.15;3.00;;;;;;;28.63;33.18;98793.58;1686015;83;22072;-66
2021/06/30 10:40:13;;;;;;;11.80;3.12;;;;;;;28.54;33.70;98783.59;1703524;82;21596;-65
2021/06/30 10:42:46;;;;;;;26.15;3.87;;;;;;;28.51;34.10;98789.35;1698729;82;20938;-66
2021/06/30 10:45:21;;;;;;;27.02;4.92;;;;;;;28.40;34.79;98792.66;1703035;82;21461;-65
2021/06/30 10:48:13;;;;;;;8.75;2.72;;;;;;;28.40;35.08;98784.60;1683549;82;20956;-66
2021/06/30 10:50:43;;;;;;;5.03;2.87;;;;;;;28.34;35.33;98780.89;1691993;82;21132;-66
2021/06/30 10:53:29;;;;;;;23.55;3.98;;;;;;;28.27;35.65;98780.92;1706384;82;20934;-66
2021/06/30 10:56:02;;;;;;;12.90;2.77;;;;;;;28.19;35.94;98782.48;1694389;82;20912;-65
2021/06/30 10:58:31;;;;;;;4.22;2.80;;;;;;;28.39;36.10;98782.96;1708187;82;21608;-65
2021/06/30 11:01:06;;;;;;;11.03;2.87;;;;;;;28.48;36.21;98787.09;1717349;80;20914;-66
2021/06/30 11:03:40;;;;;;;5.30;2.90;;;;;;;28.57;36.29;98781.82;1616280;85;22037;-67
2021/06/30 11:06:23;;;;;;;8.23;3.02;;;;;;;28.64;36.16;98791.19;1654540;84;20905;-66
2021/06/30 11:09:05;;;;;;;11.50;3.33;;;;;;;28.60;36.20;98795.34;1655033;84;21445;-66
2021/06/30 11:11:37;;;;;;;12.82;3.20;;;;;;;28.44;36.22;98789.91;1713356;80;21622;-65
2021/06/30 11:14:10;;;;;;;17.37;3.12;;;;;;;28.34;36.57;98787.12;1732414;80;20879;-66
2021/06/30 11:16:46;;;;;;;7.33;2.90;;;;;;;28.23;36.70;98791.78;1722270;80;22100;-65
2021/06/30 11:19:21;;;;;;;9.23;2.50;;;;;;;28.23;36.90;98782.39;1682479;83;20936;-65
2021/06/30 11:21:53;;;;;;;3.40;2.37;;;;;;;28.23;37.09;98786.41;1681328;82;21517;-66
2021/06/30 11:27:20;;;;;;;15.80;3.15;;;;;;;28.07;37.43;98784.16;1664171;84;20983;-65
2021/06/30 11:29:59;;;;;;;22.32;4.40;;;;;;;27.94;37.62;98782.83;1721633;80;21242;-66
2021/06/30 11:32:38;;;;;;;11.97;2.65;;;;;;;27.93;37.95;98789.23;1713260;80;20962;-66
2021/06/30 11:35:13;;;;;;;8.70;2.60;;;;;;;27.93;38.05;98787.89;1731202;80;21487;-66
2021/06/30 11:37:43;;;;;;;6.08;2.52;;;;;;;28.04;38.24;98783.24;1721064;80;20996;-65
2021/06/30 11:40:18;;;;;;;6.05;2.00;;;;;;;28.06;38.45;98787.38;1721148;80;20985;-68
2021/06/30 11:42:48;;;;;;;12.73;3.20;;;;;;;27.94;38.50;98785.52;1731687;80;21131;-66
2021/06/30 11:45:32;;;;;;;3.83;2.33;;;;;;;27.88;38.94;98787.98;1717097;80;21937;-68